sensor_id;sensor_type;location;lat;lon;timestamp;P1;durP1;ratioP1;P2;durP2;ratioP2
46365;SDS011;32073;49.166;8.076;2023-04-24T00:01:25;3.90;;;0.70;;
46365;SDS011;32073;49.166;8.076;2023-04-24T00:05:26;1.05;;;0.60;;
46365;SDS011;32073;49.166;8.076;2023-04-24T00:09:27;0.40;;;0.30;;
46365;SDS011;32073;49.166;8.076;2023-04-24T00:13:28;2.35;;;0.43;;
46365;SDS011;32073;49.166;8.076;2023-04-24T00:17:29;0.95;;;0.40;;
46365;SDS011;32073;49.166;8.076;2023-04-24T00:21:30;1.15;;;0.50;;
46365;SDS011;32073;49.166;8.076;2023-04-24T00:25:32;0.88;;;0.60;;
46365;SDS011;32073;49.166;8.076;2023-04-24T00:29:33;1.98;;;0.43;;
46365;SDS011;32073;49.166;8.076;2023-04-24T00:33:33;0.80;;;0.47;;
46365;SDS011;32073;49.166;8.076;2023-04-24T00:37:34;3.85;;;0.60;;
46365;SDS011;32073;49.166;8.076;2023-04-24T00:41:35;1.00;;;0.60;;
46365;SDS011;32073;49.166;8.076;2023-04-24T00:45:36;1.30;;;0.50;;
46365;SDS011;32073;49.166;8.076;2023-04-24T00:49:37;1.05;;;0.68;;
46365;SDS011;32073;49.166;8.076;2023-04-24T00:53:37;1.95;;;0.60;;
46365;SDS011;32073;49.166;8.076;2023-04-24T00:57:38;2.97;;;1.00;;
46365;SDS011;32073;49.166;8.076;2023-04-24T01:01:39;1.42;;;0.70;;
46365;SDS011;32073;49.166;8.076;2023-04-24T01:05:43;1.00;;;0.65;;
46365;SDS011;32073;49.166;8.076;2023-04-24T01:09:44;1.70;;;0.60;;
46365;SDS011;32073;49.166;8.076;2023-04-24T01:13:48;1.27;;;0.70;;
46365;SDS011;32073;49.166;8.076;2023-04-24T01:17:48;1.42;;;0.60;;
46365;SDS011;32073;49.166;8.076;2023-04-24T01:21:51;2.15;;;0.60;;
46365;SDS011;32073;49.166;8.076;2023-04-24T01:25:54;1.10;;;0.70;;
46365;SDS011;32073;49.166;8.076;2023-04-24T01:29:55;0.73;;;0.52;;
46365;SDS011;32073;49.166;8.076;2023-04-24T01:33:56;0.50;;;0.50;;
46365;SDS011;32073;49.166;8.076;2023-04-24T01:37:57;2.78;;;0.70;;
46365;SDS011;32073;49.166;8.076;2023-04-24T01:41:57;2.10;;;0.80;;
46365;SDS011;32073;49.166;8.076;2023-04-24T01:45:58;1.00;;;0.70;;
46365;SDS011;32073;49.166;8.076;2023-04-24T01:49:59;1.02;;;0.60;;
46365;SDS011;32073;49.166;8.076;2023-04-24T01:54:00;2.17;;;0.57;;
46365;SDS011;32073;49.166;8.076;2023-04-24T01:58:01;1.65;;;1.00;;
46365;SDS011;32073;49.166;8.076;2023-04-24T02:02:02;2.22;;;0.80;;
46365;SDS011;32073;49.166;8.076;2023-04-24T02:06:03;2.13;;;0.85;;
46365;SDS011;32073;49.166;8.076;2023-04-24T02:10:04;1.95;;;0.50;;
46365;SDS011;32073;49.166;8.076;2023-04-24T02:14:05;1.35;;;0.60;;
46365;SDS011;32073;49.166;8.076;2023-04-24T02:18:06;0.88;;;0.43;;
46365;SDS011;32073;49.166;8.076;2023-04-24T02:22:07;1.50;;;0.70;;
46365;SDS011;32073;49.166;8.076;2023-04-24T02:26:08;1.77;;;0.65;;
46365;SDS011;32073;49.166;8.076;2023-04-24T02:30:09;1.08;;;0.60;;
46365;SDS011;32073;49.166;8.076;2023-04-24T02:34:10;1.10;;;0.60;;
46365;SDS011;32073;49.166;8.076;2023-04-24T02:38:10;1.10;;;1.00;;
46365;SDS011;32073;49.166;8.076;2023-04-24T02:42:11;1.83;;;0.90;;
46365;SDS011;32073;49.166;8.076;2023-04-24T02:46:12;1.02;;;0.75;;
46365;SDS011;32073;49.166;8.076;2023-04-24T02:50:12;2.03;;;0.88;;
46365;SDS011;32073;49.166;8.076;2023-04-24T02:54:13;0.75;;;0.70;;
46365;SDS011;32073;49.166;8.076;2023-04-24T02:58:13;0.90;;;0.60;;
46365;SDS011;32073;49.166;8.076;2023-04-24T03:02:14;1.70;;;0.90;;
46365;SDS011;32073;49.166;8.076;2023-04-24T03:06:15;1.10;;;0.60;;
46365;SDS011;32073;49.166;8.076;2023-04-24T03:10:16;1.08;;;0.60;;
46365;SDS011;32073;49.166;8.076;2023-04-24T03:14:16;1.05;;;0.75;;
46365;SDS011;32073;49.166;8.076;2023-04-24T03:18:17;1.60;;;0.70;;
46365;SDS011;32073;49.166;8.076;2023-04-24T03:22:18;0.80;;;0.55;;
46365;SDS011;32073;49.166;8.076;2023-04-24T03:26:18;2.05;;;0.60;;
46365;SDS011;32073;49.166;8.076;2023-04-24T03:30:19;1.00;;;0.50;;
46365;SDS011;32073;49.166;8.076;2023-04-24T03:34:20;1.40;;;0.70;;
46365;SDS011;32073;49.166;8.076;2023-04-24T03:38:21;0.60;;;0.60;;
46365;SDS011;32073;49.166;8.076;2023-04-24T03:42:22;0.82;;;0.70;;
46365;SDS011;32073;49.166;8.076;2023-04-24T03:46:22;0.98;;;0.80;;
46365;SDS011;32073;49.166;8.076;2023-04-24T03:50:23;1.02;;;0.90;;
46365;SDS011;32073;49.166;8.076;2023-04-24T03:54:24;1.70;;;0.95;;
46365;SDS011;32073;49.166;8.076;2023-04-24T03:58:24;1.98;;;1.08;;
46365;SDS011;32073;49.166;8.076;2023-04-24T04:02:25;1.27;;;1.17;;
46365;SDS011;32073;49.166;8.076;2023-04-24T04:06:26;2.05;;;1.13;;
46365;SDS011;32073;49.166;8.076;2023-04-24T04:10:26;1.65;;;0.98;;
46365;SDS011;32073;49.166;8.076;2023-04-24T04:14:27;1.55;;;1.23;;
46365;SDS011;32073;49.166;8.076;2023-04-24T04:18:28;4.40;;;1.50;;
46365;SDS011;32073;49.166;8.076;2023-04-24T04:22:28;1.95;;;1.17;;
46365;SDS011;32073;49.166;8.076;2023-04-24T04:26:29;1.77;;;1.20;;
46365;SDS011;32073;49.166;8.076;2023-04-24T04:30:32;2.33;;;1.50;;
46365;SDS011;32073;49.166;8.076;2023-04-24T04:34:33;2.25;;;1.50;;
46365;SDS011;32073;49.166;8.076;2023-04-24T04:38:34;1.27;;;1.17;;
46365;SDS011;32073;49.166;8.076;2023-04-24T04:42:34;1.58;;;0.98;;
46365;SDS011;32073;49.166;8.076;2023-04-24T04:46:35;1.63;;;1.13;;
46365;SDS011;32073;49.166;8.076;2023-04-24T04:50:37;3.00;;;1.42;;
46365;SDS011;32073;49.166;8.076;2023-04-24T04:54:38;1.65;;;1.27;;
46365;SDS011;32073;49.166;8.076;2023-04-24T04:58:39;2.15;;;1.20;;
46365;SDS011;32073;49.166;8.076;2023-04-24T05:02:39;3.30;;;1.20;;
46365;SDS011;32073;49.166;8.076;2023-04-24T05:06:40;2.50;;;1.08;;
46365;SDS011;32073;49.166;8.076;2023-04-24T05:10:40;2.00;;;1.17;;
46365;SDS011;32073;49.166;8.076;2023-04-24T05:14:41;1.35;;;1.10;;
46365;SDS011;32073;49.166;8.076;2023-04-24T05:18:42;3.83;;;1.50;;
46365;SDS011;32073;49.166;8.076;2023-04-24T05:22:42;1.95;;;1.20;;
46365;SDS011;32073;49.166;8.076;2023-04-24T05:26:43;1.48;;;0.90;;
46365;SDS011;32073;49.166;8.076;2023-04-24T05:30:44;1.50;;;1.38;;
46365;SDS011;32073;49.166;8.076;2023-04-24T05:34:44;1.67;;;1.27;;
46365;SDS011;32073;49.166;8.076;2023-04-24T05:38:45;4.35;;;1.35;;
46365;SDS011;32073;49.166;8.076;2023-04-24T05:42:45;3.78;;;1.27;;
46365;SDS011;32073;49.166;8.076;2023-04-24T05:46:46;2.78;;;1.40;;
46365;SDS011;32073;49.166;8.076;2023-04-24T05:50:47;1.70;;;1.33;;
46365;SDS011;32073;49.166;8.076;2023-04-24T05:54:47;2.97;;;1.63;;
46365;SDS011;32073;49.166;8.076;2023-04-24T05:58:48;2.03;;;1.70;;
46365;SDS011;32073;49.166;8.076;2023-04-24T06:02:49;2.85;;;1.50;;
46365;SDS011;32073;49.166;8.076;2023-04-24T06:06:50;1.70;;;1.33;;
46365;SDS011;32073;49.166;8.076;2023-04-24T06:10:55;2.42;;;1.40;;
46365;SDS011;32073;49.166;8.076;2023-04-24T06:14:56;1.83;;;1.20;;
46365;SDS011;32073;49.166;8.076;2023-04-24T06:18:56;1.27;;;0.90;;
46365;SDS011;32073;49.166;8.076;2023-04-24T06:22:57;4.32;;;2.40;;
46365;SDS011;32073;49.166;8.076;2023-04-24T06:26:57;6.80;;;3.22;;
46365;SDS011;32073;49.166;8.076;2023-04-24T06:30:59;4.00;;;1.95;;
46365;SDS011;32073;49.166;8.076;2023-04-24T06:35:00;3.80;;;1.90;;
46365;SDS011;32073;49.166;8.076;2023-04-24T06:39:01;2.40;;;1.20;;
46365;SDS011;32073;49.166;8.076;2023-04-24T06:43:01;2.20;;;1.38;;
46365;SDS011;32073;49.166;8.076;2023-04-24T06:47:02;12.13;;;6.07;;
46365;SDS011;32073;49.166;8.076;2023-04-24T06:51:03;3.53;;;2.90;;
46365;SDS011;32073;49.166;8.076;2023-04-24T06:55:04;6.55;;;4.85;;
46365;SDS011;32073;49.166;8.076;2023-04-24T06:59:05;4.00;;;2.72;;
46365;SDS011;32073;49.166;8.076;2023-04-24T07:03:06;2.55;;;1.95;;
46365;SDS011;32073;49.166;8.076;2023-04-24T07:07:07;2.95;;;2.05;;
46365;SDS011;32073;49.166;8.076;2023-04-24T07:11:09;3.28;;;1.88;;
46365;SDS011;32073;49.166;8.076;2023-04-24T07:15:10;1.40;;;1.15;;
46365;SDS011;32073;49.166;8.076;2023-04-24T07:19:11;1.65;;;0.82;;
46365;SDS011;32073;49.166;8.076;2023-04-24T07:23:13;2.53;;;1.65;;
46365;SDS011;32073;49.166;8.076;2023-04-24T07:27:13;2.80;;;2.05;;
46365;SDS011;32073;49.166;8.076;2023-04-24T07:31:14;4.22;;;2.28;;
46365;SDS011;32073;49.166;8.076;2023-04-24T07:35:15;6.75;;;4.30;;
46365;SDS011;32073;49.166;8.076;2023-04-24T07:39:16;3.35;;;2.10;;
46365;SDS011;32073;49.166;8.076;2023-04-24T07:43:17;2.95;;;1.50;;
46365;SDS011;32073;49.166;8.076;2023-04-24T07:47:19;1.63;;;1.52;;
46365;SDS011;32073;49.166;8.076;2023-04-24T07:51:20;1.52;;;1.30;;
46365;SDS011;32073;49.166;8.076;2023-04-24T07:55:21;12.02;;;5.85;;
46365;SDS011;32073;49.166;8.076;2023-04-24T07:59:22;9.38;;;6.20;;
46365;SDS011;32073;49.166;8.076;2023-04-24T08:03:23;2.80;;;1.90;;
46365;SDS011;32073;49.166;8.076;2023-04-24T08:07:24;1.67;;;1.27;;
46365;SDS011;32073;49.166;8.076;2023-04-24T08:11:25;0.90;;;0.80;;
46365;SDS011;32073;49.166;8.076;2023-04-24T08:15:27;1.48;;;0.80;;
46365;SDS011;32073;49.166;8.076;2023-04-24T08:19:28;1.25;;;0.88;;
46365;SDS011;32073;49.166;8.076;2023-04-24T08:23:29;1.10;;;0.73;;
46365;SDS011;32073;49.166;8.076;2023-04-24T08:27:29;1.98;;;1.02;;
46365;SDS011;32073;49.166;8.076;2023-04-24T08:31:30;2.20;;;1.02;;
46365;SDS011;32073;49.166;8.076;2023-04-24T08:35:30;1.38;;;1.27;;
46365;SDS011;32073;49.166;8.076;2023-04-24T08:39:31;1.25;;;0.98;;
46365;SDS011;32073;49.166;8.076;2023-04-24T08:43:33;1.70;;;0.88;;
46365;SDS011;32073;49.166;8.076;2023-04-24T08:47:37;1.48;;;0.90;;
46365;SDS011;32073;49.166;8.076;2023-04-24T08:51:41;1.33;;;0.80;;
46365;SDS011;32073;49.166;8.076;2023-04-24T08:55:42;2.03;;;0.70;;
46365;SDS011;32073;49.166;8.076;2023-04-24T08:59:47;1.60;;;0.93;;
46365;SDS011;32073;49.166;8.076;2023-04-24T09:03:48;2.42;;;1.30;;
46365;SDS011;32073;49.166;8.076;2023-04-24T09:07:51;2.17;;;1.80;;
46365;SDS011;32073;49.166;8.076;2023-04-24T09:11:55;2.25;;;1.38;;
46365;SDS011;32073;49.166;8.076;2023-04-24T09:15:57;3.05;;;1.70;;
46365;SDS011;32073;49.166;8.076;2023-04-24T09:19:57;3.30;;;1.80;;
46365;SDS011;32073;49.166;8.076;2023-04-24T09:24:05;2.10;;;1.40;;
46365;SDS011;32073;49.166;8.076;2023-04-24T09:28:08;2.85;;;1.90;;
46365;SDS011;32073;49.166;8.076;2023-04-24T09:32:21;2.33;;;1.50;;
46365;SDS011;32073;49.166;8.076;2023-04-24T09:40:36;2.92;;;1.60;;
46365;SDS011;32073;49.166;8.076;2023-04-24T09:44:37;2.88;;;1.38;;
46365;SDS011;32073;49.166;8.076;2023-04-24T09:48:38;2.45;;;1.48;;
46365;SDS011;32073;49.166;8.076;2023-04-24T09:52:46;1.50;;;1.40;;
46365;SDS011;32073;49.166;8.076;2023-04-24T09:56:59;1.77;;;1.50;;
46365;SDS011;32073;49.166;8.076;2023-04-24T10:01:02;2.33;;;1.52;;
46365;SDS011;32073;49.166;8.076;2023-04-24T10:05:04;3.25;;;1.38;;
46365;SDS011;32073;49.166;8.076;2023-04-24T10:09:05;2.10;;;1.60;;
46365;SDS011;32073;49.166;8.076;2023-04-24T10:13:07;2.20;;;1.25;;
46365;SDS011;32073;49.166;8.076;2023-04-24T10:17:09;2.97;;;2.10;;
46365;SDS011;32073;49.166;8.076;2023-04-24T10:21:11;2.40;;;1.60;;
46365;SDS011;32073;49.166;8.076;2023-04-24T10:25:12;4.75;;;1.52;;
46365;SDS011;32073;49.166;8.076;2023-04-24T10:29:18;3.40;;;1.50;;
46365;SDS011;32073;49.166;8.076;2023-04-24T10:33:19;2.42;;;1.30;;
46365;SDS011;32073;49.166;8.076;2023-04-24T10:37:19;2.40;;;1.73;;
46365;SDS011;32073;49.166;8.076;2023-04-24T10:41:20;1.80;;;1.15;;
46365;SDS011;32073;49.166;8.076;2023-04-24T10:45:23;2.80;;;1.23;;
46365;SDS011;32073;49.166;8.076;2023-04-24T10:49:28;3.42;;;1.38;;
46365;SDS011;32073;49.166;8.076;2023-04-24T10:53:30;2.63;;;1.75;;
46365;SDS011;32073;49.166;8.076;2023-04-24T10:57:34;2.53;;;1.70;;
46365;SDS011;32073;49.166;8.076;2023-04-24T11:01:35;3.00;;;2.00;;
46365;SDS011;32073;49.166;8.076;2023-04-24T11:06:23;4.30;;;2.22;;
46365;SDS011;32073;49.166;8.076;2023-04-24T11:10:03;2.38;;;1.73;;
46365;SDS011;32073;49.166;8.076;2023-04-24T11:14:05;3.67;;;1.80;;
46365;SDS011;32073;49.166;8.076;2023-04-24T11:18:12;2.40;;;1.50;;
46365;SDS011;32073;49.166;8.076;2023-04-24T11:22:16;1.73;;;1.50;;
46365;SDS011;32073;49.166;8.076;2023-04-24T11:26:18;3.90;;;1.98;;
46365;SDS011;32073;49.166;8.076;2023-04-24T11:30:24;2.30;;;1.85;;
46365;SDS011;32073;49.166;8.076;2023-04-24T11:34:31;2.33;;;1.98;;
46365;SDS011;32073;49.166;8.076;2023-04-24T11:38:32;2.30;;;1.90;;
46365;SDS011;32073;49.166;8.076;2023-04-24T11:42:33;4.18;;;1.88;;
46365;SDS011;32073;49.166;8.076;2023-04-24T11:46:42;3.08;;;1.88;;
46365;SDS011;32073;49.166;8.076;2023-04-24T11:50:45;3.33;;;1.75;;
46365;SDS011;32073;49.166;8.076;2023-04-24T11:54:47;3.05;;;1.50;;
46365;SDS011;32073;49.166;8.076;2023-04-24T11:58:53;3.42;;;1.85;;
46365;SDS011;32073;49.166;8.076;2023-04-24T12:03:07;2.35;;;1.70;;
46365;SDS011;32073;49.166;8.076;2023-04-24T12:07:11;4.63;;;1.80;;
46365;SDS011;32073;49.166;8.076;2023-04-24T12:11:14;3.30;;;1.70;;
46365;SDS011;32073;49.166;8.076;2023-04-24T12:15:20;2.33;;;1.58;;
46365;SDS011;32073;49.166;8.076;2023-04-24T12:19:22;4.65;;;2.30;;
46365;SDS011;32073;49.166;8.076;2023-04-24T12:23:33;2.72;;;1.80;;
46365;SDS011;32073;49.166;8.076;2023-04-24T12:27:37;3.55;;;2.00;;
46365;SDS011;32073;49.166;8.076;2023-04-24T12:31:39;3.25;;;1.65;;
46365;SDS011;32073;49.166;8.076;2023-04-24T12:35:39;4.50;;;1.90;;
46365;SDS011;32073;49.166;8.076;2023-04-24T12:39:46;2.65;;;1.60;;
46365;SDS011;32073;49.166;8.076;2023-04-24T12:44:00;2.40;;;1.58;;
46365;SDS011;32073;49.166;8.076;2023-04-24T12:48:01;2.58;;;1.50;;
46365;SDS011;32073;49.166;8.076;2023-04-24T12:52:01;3.40;;;1.60;;
46365;SDS011;32073;49.166;8.076;2023-04-24T12:56:02;2.15;;;1.80;;
46365;SDS011;32073;49.166;8.076;2023-04-24T13:00:03;1.95;;;1.20;;
46365;SDS011;32073;49.166;8.076;2023-04-24T13:04:06;2.80;;;1.48;;
46365;SDS011;32073;49.166;8.076;2023-04-24T13:08:07;2.03;;;1.48;;
46365;SDS011;32073;49.166;8.076;2023-04-24T13:12:08;2.95;;;1.70;;
46365;SDS011;32073;49.166;8.076;2023-04-24T13:16:09;3.65;;;1.80;;
46365;SDS011;32073;49.166;8.076;2023-04-24T13:20:10;3.03;;;1.55;;
46365;SDS011;32073;49.166;8.076;2023-04-24T13:24:11;3.05;;;1.98;;
46365;SDS011;32073;49.166;8.076;2023-04-24T13:28:12;3.30;;;1.30;;
46365;SDS011;32073;49.166;8.076;2023-04-24T13:32:13;2.85;;;1.73;;
46365;SDS011;32073;49.166;8.076;2023-04-24T13:36:14;2.08;;;1.42;;
46365;SDS011;32073;49.166;8.076;2023-04-24T13:40:17;2.85;;;1.52;;
46365;SDS011;32073;49.166;8.076;2023-04-24T13:44:18;2.92;;;1.50;;
46365;SDS011;32073;49.166;8.076;2023-04-24T13:48:20;3.08;;;1.65;;
46365;SDS011;32073;49.166;8.076;2023-04-24T13:52:21;2.35;;;1.80;;
46365;SDS011;32073;49.166;8.076;2023-04-24T13:56:22;2.90;;;1.60;;
46365;SDS011;32073;49.166;8.076;2023-04-24T14:00:22;1.25;;;1.02;;
46365;SDS011;32073;49.166;8.076;2023-04-24T14:04:23;2.95;;;1.30;;
46365;SDS011;32073;49.166;8.076;2023-04-24T14:08:24;3.97;;;1.80;;
46365;SDS011;32073;49.166;8.076;2023-04-24T14:12:25;2.20;;;1.50;;
46365;SDS011;32073;49.166;8.076;2023-04-24T14:16:25;3.42;;;1.40;;
46365;SDS011;32073;49.166;8.076;2023-04-24T14:20:26;2.55;;;1.25;;
46365;SDS011;32073;49.166;8.076;2023-04-24T14:24:27;2.40;;;1.40;;
46365;SDS011;32073;49.166;8.076;2023-04-24T14:28:27;2.22;;;1.33;;
46365;SDS011;32073;49.166;8.076;2023-04-24T14:32:28;3.00;;;1.30;;
46365;SDS011;32073;49.166;8.076;2023-04-24T14:36:29;4.50;;;1.60;;
46365;SDS011;32073;49.166;8.076;2023-04-24T14:40:30;3.42;;;1.33;;
46365;SDS011;32073;49.166;8.076;2023-04-24T14:44:32;3.50;;;1.10;;
46365;SDS011;32073;49.166;8.076;2023-04-24T14:48:33;2.05;;;1.35;;
46365;SDS011;32073;49.166;8.076;2023-04-24T14:52:34;3.05;;;1.27;;
46365;SDS011;32073;49.166;8.076;2023-04-24T14:56:35;2.97;;;1.23;;
46365;SDS011;32073;49.166;8.076;2023-04-24T15:00:36;1.95;;;1.38;;
46365;SDS011;32073;49.166;8.076;2023-04-24T15:04:37;2.40;;;1.13;;
46365;SDS011;32073;49.166;8.076;2023-04-24T15:08:37;3.00;;;1.40;;
46365;SDS011;32073;49.166;8.076;2023-04-24T15:12:38;2.78;;;1.45;;
46365;SDS011;32073;49.166;8.076;2023-04-24T15:16:39;2.90;;;1.70;;
46365;SDS011;32073;49.166;8.076;2023-04-24T15:20:40;3.35;;;1.55;;
46365;SDS011;32073;49.166;8.076;2023-04-24T15:24:41;3.35;;;1.58;;
46365;SDS011;32073;49.166;8.076;2023-04-24T15:28:41;2.80;;;1.63;;
46365;SDS011;32073;49.166;8.076;2023-04-24T15:32:42;3.05;;;1.50;;
46365;SDS011;32073;49.166;8.076;2023-04-24T15:36:43;2.13;;;1.40;;
46365;SDS011;32073;49.166;8.076;2023-04-24T15:40:44;3.05;;;1.60;;
46365;SDS011;32073;49.166;8.076;2023-04-24T15:44:44;1.58;;;1.30;;
46365;SDS011;32073;49.166;8.076;2023-04-24T15:48:45;2.17;;;1.23;;
46365;SDS011;32073;49.166;8.076;2023-04-24T15:52:45;3.92;;;1.52;;
46365;SDS011;32073;49.166;8.076;2023-04-24T15:56:46;2.63;;;1.40;;
46365;SDS011;32073;49.166;8.076;2023-04-24T16:00:49;2.05;;;1.20;;
46365;SDS011;32073;49.166;8.076;2023-04-24T16:04:50;1.33;;;1.15;;
46365;SDS011;32073;49.166;8.076;2023-04-24T16:08:51;3.00;;;1.42;;
46365;SDS011;32073;49.166;8.076;2023-04-24T16:12:52;1.60;;;1.33;;
46365;SDS011;32073;49.166;8.076;2023-04-24T16:16:56;2.05;;;1.25;;
46365;SDS011;32073;49.166;8.076;2023-04-24T16:20:56;1.83;;;1.20;;
46365;SDS011;32073;49.166;8.076;2023-04-24T16:24:57;4.38;;;1.48;;
46365;SDS011;32073;49.166;8.076;2023-04-24T16:28:58;2.40;;;1.50;;
46365;SDS011;32073;49.166;8.076;2023-04-24T16:32:58;2.33;;;1.30;;
46365;SDS011;32073;49.166;8.076;2023-04-24T16:36:59;1.67;;;1.00;;
46365;SDS011;32073;49.166;8.076;2023-04-24T16:41:00;1.70;;;1.02;;
46365;SDS011;32073;49.166;8.076;2023-04-24T16:45:01;3.13;;;1.73;;
46365;SDS011;32073;49.166;8.076;2023-04-24T16:49:01;1.60;;;1.08;;
46365;SDS011;32073;49.166;8.076;2023-04-24T16:53:02;1.88;;;1.35;;
46365;SDS011;32073;49.166;8.076;2023-04-24T16:57:03;0.82;;;0.82;;
46365;SDS011;32073;49.166;8.076;2023-04-24T17:01:04;1.92;;;0.70;;
46365;SDS011;32073;49.166;8.076;2023-04-24T17:05:05;1.63;;;0.75;;
46365;SDS011;32073;49.166;8.076;2023-04-24T17:09:06;2.22;;;1.05;;
46365;SDS011;32073;49.166;8.076;2023-04-24T17:13:07;1.15;;;1.00;;
46365;SDS011;32073;49.166;8.076;2023-04-24T17:17:08;1.88;;;1.40;;
46365;SDS011;32073;49.166;8.076;2023-04-24T17:21:09;2.10;;;1.42;;
46365;SDS011;32073;49.166;8.076;2023-04-24T17:25:10;1.95;;;1.20;;
46365;SDS011;32073;49.166;8.076;2023-04-24T17:29:10;1.25;;;1.05;;
46365;SDS011;32073;49.166;8.076;2023-04-24T17:33:11;1.48;;;1.02;;
46365;SDS011;32073;49.166;8.076;2023-04-24T17:37:12;3.10;;;1.10;;
46365;SDS011;32073;49.166;8.076;2023-04-24T17:41:12;3.13;;;1.20;;
46365;SDS011;32073;49.166;8.076;2023-04-24T17:45:15;1.95;;;1.30;;
46365;SDS011;32073;49.166;8.076;2023-04-24T17:49:16;1.80;;;1.10;;
46365;SDS011;32073;49.166;8.076;2023-04-24T17:53:17;1.60;;;1.02;;
46365;SDS011;32073;49.166;8.076;2023-04-24T17:57:21;2.22;;;1.30;;
46365;SDS011;32073;49.166;8.076;2023-04-24T18:01:22;2.63;;;1.50;;
46365;SDS011;32073;49.166;8.076;2023-04-24T18:05:23;2.25;;;1.00;;
46365;SDS011;32073;49.166;8.076;2023-04-24T18:09:23;0.95;;;0.90;;
46365;SDS011;32073;49.166;8.076;2023-04-24T18:13:24;2.22;;;1.05;;
46365;SDS011;32073;49.166;8.076;2023-04-24T18:17:25;1.35;;;0.88;;
46365;SDS011;32073;49.166;8.076;2023-04-24T18:21:26;1.70;;;0.90;;
46365;SDS011;32073;49.166;8.076;2023-04-24T18:25:27;0.65;;;0.60;;
46365;SDS011;32073;49.166;8.076;2023-04-24T18:29:28;0.70;;;0.70;;
46365;SDS011;32073;49.166;8.076;2023-04-24T18:33:28;1.27;;;0.93;;
46365;SDS011;32073;49.166;8.076;2023-04-24T18:37:29;1.35;;;0.80;;
46365;SDS011;32073;49.166;8.076;2023-04-24T18:41:32;1.27;;;0.98;;
46365;SDS011;32073;49.166;8.076;2023-04-24T18:45:34;1.20;;;1.10;;
46365;SDS011;32073;49.166;8.076;2023-04-24T18:49:34;1.23;;;0.80;;
46365;SDS011;32073;49.166;8.076;2023-04-24T18:53:36;1.08;;;0.80;;
46365;SDS011;32073;49.166;8.076;2023-04-24T18:57:36;1.17;;;0.90;;
46365;SDS011;32073;49.166;8.076;2023-04-24T19:01:37;1.38;;;1.13;;
46365;SDS011;32073;49.166;8.076;2023-04-24T19:05:38;1.48;;;1.10;;
46365;SDS011;32073;49.166;8.076;2023-04-24T19:09:38;3.85;;;1.48;;
46365;SDS011;32073;49.166;8.076;2023-04-24T19:13:39;37.50;;;13.55;;
46365;SDS011;32073;49.166;8.076;2023-04-24T19:17:40;10.55;;;3.92;;
46365;SDS011;32073;49.166;8.076;2023-04-24T19:21:41;4.63;;;2.15;;
46365;SDS011;32073;49.166;8.076;2023-04-24T19:25:42;2.55;;;1.60;;
46365;SDS011;32073;49.166;8.076;2023-04-24T19:29:43;2.45;;;1.90;;
46365;SDS011;32073;49.166;8.076;2023-04-24T19:33:44;5.18;;;3.05;;
46365;SDS011;32073;49.166;8.076;2023-04-24T19:37:47;8.63;;;4.63;;
46365;SDS011;32073;49.166;8.076;2023-04-24T19:41:48;2.42;;;1.70;;
46365;SDS011;32073;49.166;8.076;2023-04-24T19:45:49;2.15;;;1.35;;
46365;SDS011;32073;49.166;8.076;2023-04-24T19:49:49;1.10;;;1.00;;
46365;SDS011;32073;49.166;8.076;2023-04-24T19:53:50;2.00;;;1.05;;
46365;SDS011;32073;49.166;8.076;2023-04-24T19:57:51;2.25;;;0.90;;
46365;SDS011;32073;49.166;8.076;2023-04-24T20:01:51;1.30;;;0.88;;
46365;SDS011;32073;49.166;8.076;2023-04-24T20:05:53;0.80;;;0.80;;
46365;SDS011;32073;49.166;8.076;2023-04-24T20:09:56;1.42;;;1.33;;
46365;SDS011;32073;49.166;8.076;2023-04-24T20:13:57;1.17;;;1.08;;
46365;SDS011;32073;49.166;8.076;2023-04-24T20:18:00;3.47;;;1.08;;
46365;SDS011;32073;49.166;8.076;2023-04-24T20:22:01;0.90;;;0.90;;
46365;SDS011;32073;49.166;8.076;2023-04-24T20:26:02;1.40;;;0.95;;
46365;SDS011;32073;49.166;8.076;2023-04-24T20:30:04;1.20;;;1.05;;
46365;SDS011;32073;49.166;8.076;2023-04-24T20:34:05;0.75;;;0.75;;
46365;SDS011;32073;49.166;8.076;2023-04-24T20:38:07;1.20;;;0.98;;
46365;SDS011;32073;49.166;8.076;2023-04-24T20:42:10;0.98;;;0.88;;
46365;SDS011;32073;49.166;8.076;2023-04-24T20:46:11;1.50;;;1.17;;
46365;SDS011;32073;49.166;8.076;2023-04-24T20:50:12;1.48;;;1.10;;
46365;SDS011;32073;49.166;8.076;2023-04-24T20:54:13;2.45;;;1.05;;
46365;SDS011;32073;49.166;8.076;2023-04-24T20:58:14;1.90;;;1.48;;
46365;SDS011;32073;49.166;8.076;2023-04-24T21:02:17;1.30;;;1.20;;
46365;SDS011;32073;49.166;8.076;2023-04-24T21:06:18;2.75;;;1.98;;
46365;SDS011;32073;49.166;8.076;2023-04-24T21:10:18;8.35;;;6.60;;
46365;SDS011;32073;49.166;8.076;2023-04-24T21:14:19;8.55;;;5.60;;
46365;SDS011;32073;49.166;8.076;2023-04-24T21:18:20;8.55;;;5.53;;
46365;SDS011;32073;49.166;8.076;2023-04-24T21:22:21;12.52;;;8.23;;
46365;SDS011;32073;49.166;8.076;2023-04-24T21:26:22;21.00;;;11.25;;
46365;SDS011;32073;49.166;8.076;2023-04-24T21:30:23;19.13;;;11.30;;
46365;SDS011;32073;49.166;8.076;2023-04-24T21:34:24;10.98;;;6.20;;
46365;SDS011;32073;49.166;8.076;2023-04-24T21:38:24;15.88;;;10.07;;
46365;SDS011;32073;49.166;8.076;2023-04-24T21:42:25;11.45;;;7.25;;
46365;SDS011;32073;49.166;8.076;2023-04-24T21:46:26;6.88;;;4.72;;
46365;SDS011;32073;49.166;8.076;2023-04-24T21:50:26;12.45;;;7.43;;
46365;SDS011;32073;49.166;8.076;2023-04-24T21:54:27;6.43;;;3.50;;
46365;SDS011;32073;49.166;8.076;2023-04-24T21:58:27;14.30;;;8.68;;
46365;SDS011;32073;49.166;8.076;2023-04-24T22:02:28;14.68;;;6.72;;
46365;SDS011;32073;49.166;8.076;2023-04-24T22:06:29;6.25;;;3.90;;
46365;SDS011;32073;49.166;8.076;2023-04-24T22:10:31;4.93;;;2.78;;
46365;SDS011;32073;49.166;8.076;2023-04-24T22:14:32;5.05;;;3.20;;
46365;SDS011;32073;49.166;8.076;2023-04-24T22:18:32;5.13;;;2.28;;
46365;SDS011;32073;49.166;8.076;2023-04-24T22:22:34;3.95;;;1.90;;
46365;SDS011;32073;49.166;8.076;2023-04-24T22:26:35;2.65;;;1.98;;
46365;SDS011;32073;49.166;8.076;2023-04-24T22:30:35;2.47;;;1.85;;
46365;SDS011;32073;49.166;8.076;2023-04-24T22:34:36;3.20;;;1.73;;
46365;SDS011;32073;49.166;8.076;2023-04-24T22:38:37;2.00;;;1.77;;
46365;SDS011;32073;49.166;8.076;2023-04-24T22:42:37;3.70;;;1.60;;
46365;SDS011;32073;49.166;8.076;2023-04-24T22:46:38;1.88;;;1.48;;
46365;SDS011;32073;49.166;8.076;2023-04-24T22:50:39;1.77;;;1.40;;
46365;SDS011;32073;49.166;8.076;2023-04-24T22:54:41;2.38;;;1.60;;
46365;SDS011;32073;49.166;8.076;2023-04-24T22:58:41;1.65;;;1.25;;
46365;SDS011;32073;49.166;8.076;2023-04-24T23:02:42;2.45;;;1.70;;
46365;SDS011;32073;49.166;8.076;2023-04-24T23:06:43;1.58;;;1.38;;
46365;SDS011;32073;49.166;8.076;2023-04-24T23:10:44;1.50;;;1.40;;
46365;SDS011;32073;49.166;8.076;2023-04-24T23:14:45;2.05;;;1.50;;
46365;SDS011;32073;49.166;8.076;2023-04-24T23:18:46;1.67;;;1.50;;
46365;SDS011;32073;49.166;8.076;2023-04-24T23:22:46;3.15;;;1.60;;
46365;SDS011;32073;49.166;8.076;2023-04-24T23:26:47;3.50;;;1.75;;
46365;SDS011;32073;49.166;8.076;2023-04-24T23:30:48;2.72;;;1.77;;
46365;SDS011;32073;49.166;8.076;2023-04-24T23:34:48;2.03;;;1.65;;
46365;SDS011;32073;49.166;8.076;2023-04-24T23:38:49;3.20;;;2.00;;
46365;SDS011;32073;49.166;8.076;2023-04-24T23:42:50;2.13;;;1.60;;
46365;SDS011;32073;49.166;8.076;2023-04-24T23:46:50;1.83;;;1.40;;
46365;SDS011;32073;49.166;8.076;2023-04-24T23:50:51;1.90;;;1.45;;
46365;SDS011;32073;49.166;8.076;2023-04-24T23:54:52;1.73;;;1.50;;
46365;SDS011;32073;49.166;8.076;2023-04-24T23:58:53;2.65;;;1.88;;
